sensor_id;sensor_type;location;lat;lon;timestamp;temperature;humidity
22114;DHT22;11223;49.968;9.062;2023-03-01T00:00:40;-1.30;99.90
22114;DHT22;11223;49.968;9.062;2023-03-01T00:03:06;-1.30;99.90
22114;DHT22;11223;49.968;9.062;2023-03-01T00:05:31;-1.20;99.90
22114;DHT22;11223;49.968;9.062;2023-03-01T00:07:57;-1.20;99.90
22114;DHT22;11223;49.968;9.062;2023-03-01T00:10:24;-1.10;99.90
22114;DHT22;11223;49.968;9.062;2023-03-01T00:12:49;-1.10;99.90
22114;DHT22;11223;49.968;9.062;2023-03-01T00:15:15;-1.00;99.90
22114;DHT22;11223;49.968;9.062;2023-03-01T00:17:41;-1.00;99.90
22114;DHT22;11223;49.968;9.062;2023-03-01T00:20:08;-0.90;99.90
22114;DHT22;11223;49.968;9.062;2023-03-01T00:22:36;-0.90;99.90
22114;DHT22;11223;49.968;9.062;2023-03-01T00:25:03;-0.90;99.90
22114;DHT22;11223;49.968;9.062;2023-03-01T00:27:29;-0.80;99.90
22114;DHT22;11223;49.968;9.062;2023-03-01T00:29:54;-0.90;99.90
22114;DHT22;11223;49.968;9.062;2023-03-01T00:32:20;-0.90;99.90
22114;DHT22;11223;49.968;9.062;2023-03-01T00:34:46;-0.90;99.90
22114;DHT22;11223;49.968;9.062;2023-03-01T00:37:20;-0.90;99.90
22114;DHT22;11223;49.968;9.062;2023-03-01T00:39:46;-0.90;99.90
22114;DHT22;11223;49.968;9.062;2023-03-01T00:42:11;-0.90;99.90
22114;DHT22;11223;49.968;9.062;2023-03-01T00:44:37;-0.90;99.90
22114;DHT22;11223;49.968;9.062;2023-03-01T00:47:02;-0.90;99.90
22114;DHT22;11223;49.968;9.062;2023-03-01T00:49:28;-0.90;99.90
22114;DHT22;11223;49.968;9.062;2023-03-01T00:51:54;-0.90;99.90
22114;DHT22;11223;49.968;9.062;2023-03-01T00:54:20;-0.90;99.90
22114;DHT22;11223;49.968;9.062;2023-03-01T00:56:45;-0.90;99.90
22114;DHT22;11223;49.968;9.062;2023-03-01T00:59:11;-0.90;99.90
22114;DHT22;11223;49.968;9.062;2023-03-01T01:01:36;-0.90;99.90
22114;DHT22;11223;49.968;9.062;2023-03-01T01:04:05;-1.00;99.90
22114;DHT22;11223;49.968;9.062;2023-03-01T01:06:33;-1.00;99.90
22114;DHT22;11223;49.968;9.062;2023-03-01T01:09:00;-1.10;99.90
22114;DHT22;11223;49.968;9.062;2023-03-01T01:11:27;-1.10;99.90
22114;DHT22;11223;49.968;9.062;2023-03-01T01:13:53;-1.20;99.90
22114;DHT22;11223;49.968;9.062;2023-03-01T01:16:20;-1.20;99.90
22114;DHT22;11223;49.968;9.062;2023-03-01T01:18:46;-1.30;99.90
22114;DHT22;11223;49.968;9.062;2023-03-01T01:21:15;-1.30;99.90
22114;DHT22;11223;49.968;9.062;2023-03-01T01:23:41;-1.30;99.90
22114;DHT22;11223;49.968;9.062;2023-03-01T01:26:10;-1.30;99.90
22114;DHT22;11223;49.968;9.062;2023-03-01T01:28:36;-1.30;99.90
22114;DHT22;11223;49.968;9.062;2023-03-01T01:31:02;-1.30;99.90
22114;DHT22;11223;49.968;9.062;2023-03-01T01:33:28;-1.30;99.90
22114;DHT22;11223;49.968;9.062;2023-03-01T01:35:54;-1.30;99.90
22114;DHT22;11223;49.968;9.062;2023-03-01T01:38:20;-1.30;99.90
22114;DHT22;11223;49.968;9.062;2023-03-01T01:40:47;-1.30;99.90
22114;DHT22;11223;49.968;9.062;2023-03-01T01:43:24;-1.30;99.90
22114;DHT22;11223;49.968;9.062;2023-03-01T01:45:51;-1.30;99.90
22114;DHT22;11223;49.968;9.062;2023-03-01T01:48:22;-1.30;99.90
22114;DHT22;11223;49.968;9.062;2023-03-01T01:50:59;-1.30;99.90
22114;DHT22;11223;49.968;9.062;2023-03-01T01:53:26;-1.30;99.90
22114;DHT22;11223;49.968;9.062;2023-03-01T01:55:58;-1.30;99.90
22114;DHT22;11223;49.968;9.062;2023-03-01T01:58:27;-1.30;99.90
22114;DHT22;11223;49.968;9.062;2023-03-01T02:00:54;-1.30;99.90
22114;DHT22;11223;49.968;9.062;2023-03-01T02:03:28;-1.30;99.90
22114;DHT22;11223;49.968;9.062;2023-03-01T02:06:08;-1.30;99.90
22114;DHT22;11223;49.968;9.062;2023-03-01T02:08:38;-1.20;99.90
22114;DHT22;11223;49.968;9.062;2023-03-01T02:11:05;-1.30;99.90
22114;DHT22;11223;49.968;9.062;2023-03-01T02:13:34;-1.30;99.90
22114;DHT22;11223;49.968;9.062;2023-03-01T02:16:19;-1.20;99.90
22114;DHT22;11223;49.968;9.062;2023-03-01T02:18:45;-1.30;99.90
22114;DHT22;11223;49.968;9.062;2023-03-01T02:21:14;-1.30;99.90
22114;DHT22;11223;49.968;9.062;2023-03-01T02:23:41;-1.30;99.90
22114;DHT22;11223;49.968;9.062;2023-03-01T02:29:00;-1.30;99.90
22114;DHT22;11223;49.968;9.062;2023-03-01T02:31:25;-1.30;99.90
22114;DHT22;11223;49.968;9.062;2023-03-01T02:34:18;-1.20;99.90
22114;DHT22;11223;49.968;9.062;2023-03-01T02:39:36;-1.20;99.90
22114;DHT22;11223;49.968;9.062;2023-03-01T02:42:07;-1.20;99.90
22114;DHT22;11223;49.968;9.062;2023-03-01T02:44:34;-1.20;99.90
22114;DHT22;11223;49.968;9.062;2023-03-01T02:47:02;-1.20;99.90
22114;DHT22;11223;49.968;9.062;2023-03-01T02:49:32;-1.20;99.90
22114;DHT22;11223;49.968;9.062;2023-03-01T02:55:01;-1.20;99.90
22114;DHT22;11223;49.968;9.062;2023-03-01T02:57:28;-1.20;99.90
22114;DHT22;11223;49.968;9.062;2023-03-01T02:59:56;-1.20;99.90
22114;DHT22;11223;49.968;9.062;2023-03-01T03:02:26;-1.20;99.90
22114;DHT22;11223;49.968;9.062;2023-03-01T03:05:11;-1.30;99.90
22114;DHT22;11223;49.968;9.062;2023-03-01T03:07:39;-1.30;99.90
22114;DHT22;11223;49.968;9.062;2023-03-01T03:10:08;-1.30;99.90
22114;DHT22;11223;49.968;9.062;2023-03-01T03:12:34;-1.30;99.90
22114;DHT22;11223;49.968;9.062;2023-03-01T03:14:59;-1.30;99.90
22114;DHT22;11223;49.968;9.062;2023-03-01T03:17:25;-1.30;99.90
22114;DHT22;11223;49.968;9.062;2023-03-01T03:19:51;-1.30;99.90
22114;DHT22;11223;49.968;9.062;2023-03-01T03:22:17;-1.30;99.90
22114;DHT22;11223;49.968;9.062;2023-03-01T03:24:42;-1.20;99.90
22114;DHT22;11223;49.968;9.062;2023-03-01T03:27:08;-1.20;99.90
22114;DHT22;11223;49.968;9.062;2023-03-01T03:29:34;-1.20;99.90
22114;DHT22;11223;49.968;9.062;2023-03-01T03:31:59;-1.20;99.90
22114;DHT22;11223;49.968;9.062;2023-03-01T03:34:25;-1.20;99.90
22114;DHT22;11223;49.968;9.062;2023-03-01T03:36:55;-1.20;99.90
22114;DHT22;11223;49.968;9.062;2023-03-01T03:39:25;-1.10;99.90
22114;DHT22;11223;49.968;9.062;2023-03-01T03:41:52;-1.10;99.90
22114;DHT22;11223;49.968;9.062;2023-03-01T03:44:18;-1.10;99.90
22114;DHT22;11223;49.968;9.062;2023-03-01T03:46:44;-1.10;99.90
22114;DHT22;11223;49.968;9.062;2023-03-01T03:49:10;-1.10;99.90
22114;DHT22;11223;49.968;9.062;2023-03-01T03:51:36;-1.10;99.90
22114;DHT22;11223;49.968;9.062;2023-03-01T03:54:01;-1.10;99.90
22114;DHT22;11223;49.968;9.062;2023-03-01T03:56:27;-1.10;99.90
22114;DHT22;11223;49.968;9.062;2023-03-01T03:58:52;-1.10;99.90
22114;DHT22;11223;49.968;9.062;2023-03-01T04:01:19;-1.10;99.90
22114;DHT22;11223;49.968;9.062;2023-03-01T04:03:45;-1.10;99.90
22114;DHT22;11223;49.968;9.062;2023-03-01T04:06:13;-1.10;99.90
22114;DHT22;11223;49.968;9.062;2023-03-01T04:08:39;-1.10;99.90
22114;DHT22;11223;49.968;9.062;2023-03-01T04:11:05;-1.10;99.90
22114;DHT22;11223;49.968;9.062;2023-03-01T04:13:50;-1.10;99.90
22114;DHT22;11223;49.968;9.062;2023-03-01T04:16:16;-1.10;99.90
22114;DHT22;11223;49.968;9.062;2023-03-01T04:18:43;-1.10;99.90
22114;DHT22;11223;49.968;9.062;2023-03-01T04:21:08;-1.10;99.90
22114;DHT22;11223;49.968;9.062;2023-03-01T04:23:34;-1.10;99.90
22114;DHT22;11223;49.968;9.062;2023-03-01T04:26:00;-1.00;99.90
22114;DHT22;11223;49.968;9.062;2023-03-01T04:28:34;-1.00;99.90
22114;DHT22;11223;49.968;9.062;2023-03-01T04:31:04;-1.00;99.90
22114;DHT22;11223;49.968;9.062;2023-03-01T04:33:43;-1.00;99.90
22114;DHT22;11223;49.968;9.062;2023-03-01T04:36:11;-1.10;99.90
22114;DHT22;11223;49.968;9.062;2023-03-01T04:38:38;-1.00;99.90
22114;DHT22;11223;49.968;9.062;2023-03-01T04:41:05;-1.10;99.90
22114;DHT22;11223;49.968;9.062;2023-03-01T04:43:31;-1.10;99.90
22114;DHT22;11223;49.968;9.062;2023-03-01T04:46:08;-1.10;99.90
22114;DHT22;11223;49.968;9.062;2023-03-01T04:48:36;-1.10;99.90
22114;DHT22;11223;49.968;9.062;2023-03-01T04:51:03;-1.10;99.90
22114;DHT22;11223;49.968;9.062;2023-03-01T04:53:29;-1.10;99.90
22114;DHT22;11223;49.968;9.062;2023-03-01T04:55:56;-1.10;99.90
22114;DHT22;11223;49.968;9.062;2023-03-01T04:58:23;-1.10;99.90
22114;DHT22;11223;49.968;9.062;2023-03-01T05:00:49;-1.20;99.90
22114;DHT22;11223;49.968;9.062;2023-03-01T05:03:15;-1.20;99.90
22114;DHT22;11223;49.968;9.062;2023-03-01T05:05:43;-1.20;99.90
22114;DHT22;11223;49.968;9.062;2023-03-01T05:08:09;-1.20;99.90
22114;DHT22;11223;49.968;9.062;2023-03-01T05:10:44;-1.20;99.90
22114;DHT22;11223;49.968;9.062;2023-03-01T05:13:11;-1.20;99.90
22114;DHT22;11223;49.968;9.062;2023-03-01T05:15:39;-1.30;99.90
22114;DHT22;11223;49.968;9.062;2023-03-01T05:18:05;-1.30;99.90
22114;DHT22;11223;49.968;9.062;2023-03-01T05:20:37;-1.30;99.90
22114;DHT22;11223;49.968;9.062;2023-03-01T05:23:03;-1.30;99.90
22114;DHT22;11223;49.968;9.062;2023-03-01T05:25:31;-1.30;99.90
22114;DHT22;11223;49.968;9.062;2023-03-01T05:27:58;-1.30;99.90
22114;DHT22;11223;49.968;9.062;2023-03-01T05:30:24;-1.30;99.90
22114;DHT22;11223;49.968;9.062;2023-03-01T05:32:50;-1.40;99.90
22114;DHT22;11223;49.968;9.062;2023-03-01T05:35:21;-1.40;99.90
22114;DHT22;11223;49.968;9.062;2023-03-01T05:37:48;-1.40;99.90
22114;DHT22;11223;49.968;9.062;2023-03-01T05:40:22;-1.40;99.90
22114;DHT22;11223;49.968;9.062;2023-03-01T05:42:52;-1.40;99.90
22114;DHT22;11223;49.968;9.062;2023-03-01T05:45:19;-1.40;99.90
22114;DHT22;11223;49.968;9.062;2023-03-01T05:47:46;-1.50;99.90
22114;DHT22;11223;49.968;9.062;2023-03-01T05:50:14;-1.40;99.90
22114;DHT22;11223;49.968;9.062;2023-03-01T05:52:45;-1.40;99.90
22114;DHT22;11223;49.968;9.062;2023-03-01T05:55:11;-1.40;99.90
22114;DHT22;11223;49.968;9.062;2023-03-01T05:57:36;-1.40;99.90
22114;DHT22;11223;49.968;9.062;2023-03-01T06:00:02;-1.40;99.90
22114;DHT22;11223;49.968;9.062;2023-03-01T06:02:28;-1.30;99.90
22114;DHT22;11223;49.968;9.062;2023-03-01T06:04:55;-1.30;99.90
22114;DHT22;11223;49.968;9.062;2023-03-01T06:07:21;-1.30;99.90
22114;DHT22;11223;49.968;9.062;2023-03-01T06:09:46;-1.20;99.90
22114;DHT22;11223;49.968;9.062;2023-03-01T06:12:12;-1.20;99.90
22114;DHT22;11223;49.968;9.062;2023-03-01T06:14:38;-1.20;99.90
22114;DHT22;11223;49.968;9.062;2023-03-01T06:17:03;-1.20;99.90
22114;DHT22;11223;49.968;9.062;2023-03-01T06:19:29;-1.10;99.90
22114;DHT22;11223;49.968;9.062;2023-03-01T06:21:55;-1.10;99.90
22114;DHT22;11223;49.968;9.062;2023-03-01T06:24:20;-1.10;99.90
22114;DHT22;11223;49.968;9.062;2023-03-01T06:26:46;-1.10;99.90
22114;DHT22;11223;49.968;9.062;2023-03-01T06:29:11;-1.00;99.90
22114;DHT22;11223;49.968;9.062;2023-03-01T06:31:37;-0.90;99.90
22114;DHT22;11223;49.968;9.062;2023-03-01T06:34:02;-0.80;99.90
22114;DHT22;11223;49.968;9.062;2023-03-01T06:36:28;-0.70;99.90
22114;DHT22;11223;49.968;9.062;2023-03-01T06:38:54;-0.50;99.90
22114;DHT22;11223;49.968;9.062;2023-03-01T06:41:19;-0.40;99.90
22114;DHT22;11223;49.968;9.062;2023-03-01T06:43:45;-0.10;99.90
22114;DHT22;11223;49.968;9.062;2023-03-01T06:46:11;0.00;99.90
22114;DHT22;11223;49.968;9.062;2023-03-01T06:48:36;0.20;99.90
22114;DHT22;11223;49.968;9.062;2023-03-01T06:51:02;0.30;99.90
22114;DHT22;11223;49.968;9.062;2023-03-01T06:53:28;0.40;99.90
22114;DHT22;11223;49.968;9.062;2023-03-01T06:55:58;0.50;99.90
22114;DHT22;11223;49.968;9.062;2023-03-01T06:58:25;0.60;99.90
22114;DHT22;11223;49.968;9.062;2023-03-01T07:00:51;0.70;99.90
22114;DHT22;11223;49.968;9.062;2023-03-01T07:03:16;0.80;99.90
22114;DHT22;11223;49.968;9.062;2023-03-01T07:05:42;1.00;99.90
22114;DHT22;11223;49.968;9.062;2023-03-01T07:08:08;1.10;99.90
22114;DHT22;11223;49.968;9.062;2023-03-01T07:10:33;1.20;99.90
22114;DHT22;11223;49.968;9.062;2023-03-01T07:12:59;1.30;99.90
22114;DHT22;11223;49.968;9.062;2023-03-01T07:15:28;1.50;99.90
22114;DHT22;11223;49.968;9.062;2023-03-01T07:17:54;1.60;99.90
22114;DHT22;11223;49.968;9.062;2023-03-01T07:20:20;1.80;99.90
22114;DHT22;11223;49.968;9.062;2023-03-01T07:22:53;1.90;99.90
22114;DHT22;11223;49.968;9.062;2023-03-01T07:25:20;2.10;99.90
22114;DHT22;11223;49.968;9.062;2023-03-01T07:27:52;2.20;99.90
22114;DHT22;11223;49.968;9.062;2023-03-01T07:30:18;2.30;99.90
22114;DHT22;11223;49.968;9.062;2023-03-01T07:32:44;2.40;99.90
22114;DHT22;11223;49.968;9.062;2023-03-01T07:35:11;2.60;99.90
22114;DHT22;11223;49.968;9.062;2023-03-01T07:37:36;2.60;99.90
22114;DHT22;11223;49.968;9.062;2023-03-01T07:40:02;2.70;99.90
22114;DHT22;11223;49.968;9.062;2023-03-01T07:42:28;2.80;99.90
22114;DHT22;11223;49.968;9.062;2023-03-01T07:44:53;2.80;99.90
22114;DHT22;11223;49.968;9.062;2023-03-01T07:47:19;2.90;99.90
22114;DHT22;11223;49.968;9.062;2023-03-01T07:49:44;3.00;99.90
22114;DHT22;11223;49.968;9.062;2023-03-01T07:52:11;3.00;99.90
22114;DHT22;11223;49.968;9.062;2023-03-01T07:54:37;3.10;99.90
22114;DHT22;11223;49.968;9.062;2023-03-01T07:57:03;3.20;99.90
22114;DHT22;11223;49.968;9.062;2023-03-01T07:59:28;3.20;99.90
22114;DHT22;11223;49.968;9.062;2023-03-01T08:01:58;3.30;99.90
22114;DHT22;11223;49.968;9.062;2023-03-01T08:04:24;3.40;99.90
22114;DHT22;11223;49.968;9.062;2023-03-01T08:06:53;3.40;99.90
22114;DHT22;11223;49.968;9.062;2023-03-01T08:09:18;3.40;99.90
22114;DHT22;11223;49.968;9.062;2023-03-01T08:11:44;3.60;99.90
22114;DHT22;11223;49.968;9.062;2023-03-01T08:14:10;3.70;99.90
22114;DHT22;11223;49.968;9.062;2023-03-01T08:16:38;3.80;99.90
22114;DHT22;11223;49.968;9.062;2023-03-01T08:19:06;4.10;99.30
22114;DHT22;11223;49.968;9.062;2023-03-01T08:21:32;5.10;98.30
22114;DHT22;11223;49.968;9.062;2023-03-01T08:24:03;6.60;95.30
22114;DHT22;11223;49.968;9.062;2023-03-01T08:26:29;8.10;92.10
22114;DHT22;11223;49.968;9.062;2023-03-01T08:28:55;9.30;86.90
22114;DHT22;11223;49.968;9.062;2023-03-01T08:31:30;10.20;74.00
22114;DHT22;11223;49.968;9.062;2023-03-01T08:33:59;10.90;71.40
22114;DHT22;11223;49.968;9.062;2023-03-01T08:36:27;11.70;65.70
22114;DHT22;11223;49.968;9.062;2023-03-01T08:38:54;12.20;62.90
22114;DHT22;11223;49.968;9.062;2023-03-01T08:41:20;12.60;59.50
22114;DHT22;11223;49.968;9.062;2023-03-01T08:43:45;12.80;59.20
22114;DHT22;11223;49.968;9.062;2023-03-01T08:46:11;13.10;56.50
22114;DHT22;11223;49.968;9.062;2023-03-01T08:48:37;13.50;55.20
22114;DHT22;11223;49.968;9.062;2023-03-01T08:51:17;13.20;54.20
22114;DHT22;11223;49.968;9.062;2023-03-01T08:53:43;13.20;54.80
22114;DHT22;11223;49.968;9.062;2023-03-01T08:56:09;13.50;54.10
22114;DHT22;11223;49.968;9.062;2023-03-01T08:58:36;13.40;53.10
22114;DHT22;11223;49.968;9.062;2023-03-01T09:01:10;13.30;53.20
22114;DHT22;11223;49.968;9.062;2023-03-01T09:03:36;13.30;53.40
22114;DHT22;11223;49.968;9.062;2023-03-01T09:06:04;13.20;53.00
22114;DHT22;11223;49.968;9.062;2023-03-01T09:08:30;13.30;52.90
22114;DHT22;11223;49.968;9.062;2023-03-01T09:10:56;13.30;53.40
22114;DHT22;11223;49.968;9.062;2023-03-01T09:13:22;13.30;52.60
22114;DHT22;11223;49.968;9.062;2023-03-01T09:15:51;13.00;51.80
22114;DHT22;11223;49.968;9.062;2023-03-01T09:18:17;12.80;52.70
22114;DHT22;11223;49.968;9.062;2023-03-01T09:20:42;12.40;53.10
22114;DHT22;11223;49.968;9.062;2023-03-01T09:23:08;11.90;54.30
22114;DHT22;11223;49.968;9.062;2023-03-01T09:25:34;11.30;55.00
22114;DHT22;11223;49.968;9.062;2023-03-01T09:28:00;10.90;55.50
22114;DHT22;11223;49.968;9.062;2023-03-01T09:30:25;10.80;56.30
22114;DHT22;11223;49.968;9.062;2023-03-01T09:32:51;11.10;55.60
22114;DHT22;11223;49.968;9.062;2023-03-01T09:35:17;11.90;54.70
22114;DHT22;11223;49.968;9.062;2023-03-01T09:37:44;12.70;52.70
22114;DHT22;11223;49.968;9.062;2023-03-01T09:40:16;13.30;52.00
22114;DHT22;11223;49.968;9.062;2023-03-01T09:42:52;13.70;50.80
22114;DHT22;11223;49.968;9.062;2023-03-01T09:45:45;13.90;50.80
22114;DHT22;11223;49.968;9.062;2023-03-01T09:48:21;14.10;50.40
22114;DHT22;11223;49.968;9.062;2023-03-01T09:50:49;14.20;49.60
22114;DHT22;11223;49.968;9.062;2023-03-01T09:53:18;14.40;49.30
22114;DHT22;11223;49.968;9.062;2023-03-01T09:56:04;14.60;49.10
22114;DHT22;11223;49.968;9.062;2023-03-01T10:01:32;14.50;48.50
22114;DHT22;11223;49.968;9.062;2023-03-01T10:06:51;13.50;49.80
22114;DHT22;11223;49.968;9.062;2023-03-01T10:09:19;13.50;50.00
22114;DHT22;11223;49.968;9.062;2023-03-01T10:11:49;13.60;50.20
22114;DHT22;11223;49.968;9.062;2023-03-01T10:14:35;13.80;50.70
22114;DHT22;11223;49.968;9.062;2023-03-01T10:19:45;14.40;48.50
22114;DHT22;11223;49.968;9.062;2023-03-01T10:22:22;14.30;48.50
22114;DHT22;11223;49.968;9.062;2023-03-01T10:24:49;14.20;49.00
22114;DHT22;11223;49.968;9.062;2023-03-01T10:27:52;14.10;48.10
22114;DHT22;11223;49.968;9.062;2023-03-01T10:30:35;14.00;49.20
22114;DHT22;11223;49.968;9.062;2023-03-01T10:33:13;13.70;48.80
22114;DHT22;11223;49.968;9.062;2023-03-01T10:35:39;13.80;49.30
22114;DHT22;11223;49.968;9.062;2023-03-01T10:38:11;14.10;48.20
22114;DHT22;11223;49.968;9.062;2023-03-01T10:41:05;14.50;48.20
22114;DHT22;11223;49.968;9.062;2023-03-01T10:43:51;15.20;46.70
22114;DHT22;11223;49.968;9.062;2023-03-01T10:46:37;15.80;45.60
22114;DHT22;11223;49.968;9.062;2023-03-01T10:51:33;16.90;44.20
22114;DHT22;11223;49.968;9.062;2023-03-01T10:53:59;17.70;43.50
22114;DHT22;11223;49.968;9.062;2023-03-01T10:56:24;18.40;41.70
22114;DHT22;11223;49.968;9.062;2023-03-01T10:58:59;18.90;40.50
22114;DHT22;11223;49.968;9.062;2023-03-01T11:01:28;19.20;39.80
22114;DHT22;11223;49.968;9.062;2023-03-01T11:04:10;19.30;39.30
22114;DHT22;11223;49.968;9.062;2023-03-01T11:06:38;19.60;39.00
22114;DHT22;11223;49.968;9.062;2023-03-01T11:09:22;19.80;38.50
22114;DHT22;11223;49.968;9.062;2023-03-01T11:11:56;20.00;38.30
22114;DHT22;11223;49.968;9.062;2023-03-01T11:14:24;20.40;38.30
22114;DHT22;11223;49.968;9.062;2023-03-01T11:19:38;21.20;36.60
22114;DHT22;11223;49.968;9.062;2023-03-01T11:22:06;21.00;36.50
22114;DHT22;11223;49.968;9.062;2023-03-01T11:24:48;21.20;36.40
22114;DHT22;11223;49.968;9.062;2023-03-01T11:27:33;21.20;36.80
22114;DHT22;11223;49.968;9.062;2023-03-01T11:32:41;20.00;35.80
22114;DHT22;11223;49.968;9.062;2023-03-01T11:35:23;19.70;37.20
22114;DHT22;11223;49.968;9.062;2023-03-01T11:46:06;19.40;37.10
22114;DHT22;11223;49.968;9.062;2023-03-01T11:48:44;19.40;37.00
22114;DHT22;11223;49.968;9.062;2023-03-01T11:56:43;18.90;37.10
22114;DHT22;11223;49.968;9.062;2023-03-01T11:59:37;17.90;38.00
22114;DHT22;11223;49.968;9.062;2023-03-01T12:02:19;16.60;38.70
22114;DHT22;11223;49.968;9.062;2023-03-01T12:07:55;14.10;42.50
22114;DHT22;11223;49.968;9.062;2023-03-01T12:10:26;13.20;43.20
22114;DHT22;11223;49.968;9.062;2023-03-01T12:16:07;11.90;46.00
22114;DHT22;11223;49.968;9.062;2023-03-01T12:22:15;11.10;46.80
22114;DHT22;11223;49.968;9.062;2023-03-01T12:24:54;10.80;47.70
22114;DHT22;11223;49.968;9.062;2023-03-01T12:28:04;10.70;47.90
22114;DHT22;11223;49.968;9.062;2023-03-01T12:30:48;10.40;49.10
22114;DHT22;11223;49.968;9.062;2023-03-01T12:33:53;10.10;50.10
22114;DHT22;11223;49.968;9.062;2023-03-01T12:36:35;9.80;51.20
22114;DHT22;11223;49.968;9.062;2023-03-01T12:39:46;9.80;51.20
22114;DHT22;11223;49.968;9.062;2023-03-01T12:50:59;9.80;51.80
22114;DHT22;11223;49.968;9.062;2023-03-01T12:53:29;9.70;52.10
22114;DHT22;11223;49.968;9.062;2023-03-01T12:56:00;9.60;52.20
22114;DHT22;11223;49.968;9.062;2023-03-01T13:01:31;9.50;52.00
22114;DHT22;11223;49.968;9.062;2023-03-01T13:06:43;9.40;52.90
22114;DHT22;11223;49.968;9.062;2023-03-01T13:11:42;9.30;52.20
22114;DHT22;11223;49.968;9.062;2023-03-01T13:16:47;9.30;53.00
22114;DHT22;11223;49.968;9.062;2023-03-01T13:19:22;9.30;52.90
22114;DHT22;11223;49.968;9.062;2023-03-01T13:21:50;9.20;53.30
22114;DHT22;11223;49.968;9.062;2023-03-01T13:24:43;9.20;53.60
22114;DHT22;11223;49.968;9.062;2023-03-01T13:29:49;9.20;53.60
22114;DHT22;11223;49.968;9.062;2023-03-01T13:32:29;9.20;53.60
22114;DHT22;11223;49.968;9.062;2023-03-01T13:37:51;9.00;55.30
22114;DHT22;11223;49.968;9.062;2023-03-01T13:42:52;9.20;56.50
22114;DHT22;11223;49.968;9.062;2023-03-01T13:45:32;9.20;55.00
22114;DHT22;11223;49.968;9.062;2023-03-01T13:48:15;9.20;54.80
22114;DHT22;11223;49.968;9.062;2023-03-01T13:50:53;9.10;54.80
22114;DHT22;11223;49.968;9.062;2023-03-01T13:53:23;9.10;53.90
22114;DHT22;11223;49.968;9.062;2023-03-01T13:56:09;9.10;54.80
22114;DHT22;11223;49.968;9.062;2023-03-01T14:01:29;9.00;54.70
22114;DHT22;11223;49.968;9.062;2023-03-01T14:03:55;8.90;54.80
22114;DHT22;11223;49.968;9.062;2023-03-01T14:06:27;8.80;56.00
22114;DHT22;11223;49.968;9.062;2023-03-01T14:09:05;8.90;55.10
22114;DHT22;11223;49.968;9.062;2023-03-01T14:17:41;9.00;54.90
22114;DHT22;11223;49.968;9.062;2023-03-01T14:20:31;8.90;55.80
22114;DHT22;11223;49.968;9.062;2023-03-01T14:22:59;8.90;55.60
22114;DHT22;11223;49.968;9.062;2023-03-01T14:25:32;8.80;55.50
22114;DHT22;11223;49.968;9.062;2023-03-01T14:30:53;8.90;56.70
22114;DHT22;11223;49.968;9.062;2023-03-01T14:33:23;9.10;55.70
22114;DHT22;11223;49.968;9.062;2023-03-01T14:35:55;9.20;55.30
22114;DHT22;11223;49.968;9.062;2023-03-01T14:38:34;9.20;55.60
22114;DHT22;11223;49.968;9.062;2023-03-01T14:41:03;9.00;56.40
22114;DHT22;11223;49.968;9.062;2023-03-01T14:43:30;8.90;57.20
22114;DHT22;11223;49.968;9.062;2023-03-01T14:45:56;8.80;58.30
22114;DHT22;11223;49.968;9.062;2023-03-01T14:48:23;8.70;58.80
22114;DHT22;11223;49.968;9.062;2023-03-01T14:50:49;8.60;58.80
22114;DHT22;11223;49.968;9.062;2023-03-01T14:53:27;8.60;59.60
22114;DHT22;11223;49.968;9.062;2023-03-01T14:56:00;8.50;60.50
22114;DHT22;11223;49.968;9.062;2023-03-01T14:58:32;8.40;60.60
22114;DHT22;11223;49.968;9.062;2023-03-01T15:01:01;8.30;61.80
22114;DHT22;11223;49.968;9.062;2023-03-01T15:03:32;8.30;61.60
22114;DHT22;11223;49.968;9.062;2023-03-01T15:06:04;8.30;61.40
22114;DHT22;11223;49.968;9.062;2023-03-01T15:08:31;8.30;61.60
22114;DHT22;11223;49.968;9.062;2023-03-01T15:11:04;8.20;62.60
22114;DHT22;11223;49.968;9.062;2023-03-01T15:13:34;8.10;61.00
22114;DHT22;11223;49.968;9.062;2023-03-01T15:16:30;8.00;62.00
22114;DHT22;11223;49.968;9.062;2023-03-01T15:21:30;8.00;63.20
22114;DHT22;11223;49.968;9.062;2023-03-01T15:26:56;8.20;62.50
22114;DHT22;11223;49.968;9.062;2023-03-01T15:29:28;8.30;62.90
22114;DHT22;11223;49.968;9.062;2023-03-01T15:31:59;8.20;61.60
22114;DHT22;11223;49.968;9.062;2023-03-01T15:34:37;8.10;62.50
22114;DHT22;11223;49.968;9.062;2023-03-01T15:37:05;8.10;63.30
22114;DHT22;11223;49.968;9.062;2023-03-01T15:39:38;8.00;64.00
22114;DHT22;11223;49.968;9.062;2023-03-01T15:42:05;7.90;65.20
22114;DHT22;11223;49.968;9.062;2023-03-01T15:44:36;7.80;64.70
22114;DHT22;11223;49.968;9.062;2023-03-01T15:47:07;7.70;64.90
22114;DHT22;11223;49.968;9.062;2023-03-01T15:49:41;7.70;65.40
22114;DHT22;11223;49.968;9.062;2023-03-01T15:52:17;7.50;66.50
22114;DHT22;11223;49.968;9.062;2023-03-01T15:54:45;7.50;66.50
22114;DHT22;11223;49.968;9.062;2023-03-01T15:57:14;7.50;66.80
22114;DHT22;11223;49.968;9.062;2023-03-01T15:59:41;7.40;66.10
22114;DHT22;11223;49.968;9.062;2023-03-01T16:02:11;7.40;65.70
22114;DHT22;11223;49.968;9.062;2023-03-01T16:04:38;7.40;66.60
22114;DHT22;11223;49.968;9.062;2023-03-01T16:07:04;7.40;66.40
22114;DHT22;11223;49.968;9.062;2023-03-01T16:09:30;7.30;65.80
22114;DHT22;11223;49.968;9.062;2023-03-01T16:11:55;7.30;67.00
22114;DHT22;11223;49.968;9.062;2023-03-01T16:14:22;7.30;67.00
22114;DHT22;11223;49.968;9.062;2023-03-01T16:16:48;7.20;67.60
22114;DHT22;11223;49.968;9.062;2023-03-01T16:19:14;7.10;67.40
22114;DHT22;11223;49.968;9.062;2023-03-01T16:21:41;7.00;67.40
22114;DHT22;11223;49.968;9.062;2023-03-01T16:24:08;7.00;67.80
22114;DHT22;11223;49.968;9.062;2023-03-01T16:26:34;7.00;68.20
22114;DHT22;11223;49.968;9.062;2023-03-01T16:29:01;7.00;68.50
22114;DHT22;11223;49.968;9.062;2023-03-01T16:31:27;6.90;68.30
22114;DHT22;11223;49.968;9.062;2023-03-01T16:33:55;6.80;69.20
22114;DHT22;11223;49.968;9.062;2023-03-01T16:36:22;6.70;70.10
22114;DHT22;11223;49.968;9.062;2023-03-01T16:38:49;6.70;69.80
22114;DHT22;11223;49.968;9.062;2023-03-01T16:41:17;6.60;70.20
22114;DHT22;11223;49.968;9.062;2023-03-01T16:43:44;6.50;70.60
22114;DHT22;11223;49.968;9.062;2023-03-01T16:46:17;6.40;71.00
22114;DHT22;11223;49.968;9.062;2023-03-01T16:48:43;6.30;71.40
22114;DHT22;11223;49.968;9.062;2023-03-01T16:51:09;6.20;71.80
22114;DHT22;11223;49.968;9.062;2023-03-01T16:53:37;6.10;72.00
22114;DHT22;11223;49.968;9.062;2023-03-01T16:56:05;6.10;71.80
22114;DHT22;11223;49.968;9.062;2023-03-01T16:58:31;6.10;71.50
22114;DHT22;11223;49.968;9.062;2023-03-01T17:01:07;6.20;71.40
22114;DHT22;11223;49.968;9.062;2023-03-01T17:03:33;6.10;71.40
22114;DHT22;11223;49.968;9.062;2023-03-01T17:06:04;6.10;71.60
22114;DHT22;11223;49.968;9.062;2023-03-01T17:08:30;6.10;71.60
22114;DHT22;11223;49.968;9.062;2023-03-01T17:11:12;6.10;72.00
22114;DHT22;11223;49.968;9.062;2023-03-01T17:13:38;6.10;72.00
22114;DHT22;11223;49.968;9.062;2023-03-01T17:16:07;6.00;72.50
22114;DHT22;11223;49.968;9.062;2023-03-01T17:18:33;5.80;73.00
22114;DHT22;11223;49.968;9.062;2023-03-01T17:20:58;5.70;73.70
22114;DHT22;11223;49.968;9.062;2023-03-01T17:23:25;5.70;73.90
22114;DHT22;11223;49.968;9.062;2023-03-01T17:25:52;5.60;73.90